Time;durP1;ratioP1;P1;durP2;ratioP2;P2;SDS_P1;SDS_P2;PMS_P1;PMS_P2;Temp;Humidity;BMP_temperature;BMP_pressure;BME280_temperature;BME280_humidity;BME280_pressure;Samples;Min_cycle;Max_cycle;Signal;HPM_P1;HPM_P2
2022/01/27 00:03:29;;;;;;;;;;;;;;;0.03;100.00;101319.34;5563511;32;34660;-84
2022/01/27 00:06:33;;;;;;;;;;;;;;;0.05;100.00;101325.37;5566152;32;36700;-84
2022/01/27 00:09:47;;;;;;;;;;;;;;;0.08;100.00;101325.25;5563677;32;35422;-84
2022/01/27 00:12:51;;;;;;;;;;;;;;;0.09;100.00;101316.53;5561294;32;35287;-84
2022/01/27 00:16:10;;;;;;;;;;;;;;;0.22;100.00;101307.44;5562764;32;34320;-84
2022/01/27 00:19:12;;;;;;;;;;;;;;;0.12;100.00;101312.09;5561607;32;33961;-83
2022/01/27 00:22:15;;;;;;;;;;;;;;;0.21;100.00;101321.34;5562264;32;32914;-83
2022/01/27 00:25:22;;;;;;;;;;;;;;;0.15;100.00;101331.97;5561777;32;34360;-84
2022/01/27 00:28:25;;;;;;;;;;;;;;;0.08;100.00;101320.91;5561800;32;34901;-83
2022/01/27 00:31:27;;;;;;;;;;;;;;;0.07;100.00;101313.12;5561758;32;35136;-83
2022/01/27 00:34:31;;;;;;;;;;;;;;;0.15;100.00;101311.16;5562428;32;35403;-84
2022/01/27 00:37:39;;;;;;;;;;;;;;;0.12;100.00;101317.28;5562440;32;34488;-84
2022/01/27 00:40:45;;;;;;;;;;;;;;;0.09;100.00;101309.59;5562209;32;34722;-83
2022/01/27 00:43:48;;;;;;;;;;;;;;;0.11;100.00;101314.75;5562209;32;34486;-84
2022/01/27 00:46:57;;;;;;;;;;;;;;;0.05;100.00;101307.16;5560564;32;34429;-84
2022/01/27 00:49:59;;;;;;;;;;;;;;;0.09;100.00;101316.53;5560490;32;35133;-84
2022/01/27 00:53:16;;;;;;;;;;;;;;;-0.04;100.00;101309.13;5560803;32;34723;-83
2022/01/27 00:56:29;;;;;;;;;;;;;;;-0.08;100.00;101306.66;5562407;32;34768;-84
2022/01/27 01:02:50;;;;;;;;;;;;;;;-0.05;100.00;101298.78;5560455;32;35291;-84
2022/01/27 01:15:39;;;;;;;;;;;;;;;-0.22;100.00;101302.75;5560449;32;35410;-84
2022/01/27 01:18:56;;;;;;;;;;;;;;;-0.18;100.00;101293.12;5559876;32;34561;-83
2022/01/27 01:32:19;;;;;;;;;;;;;;;-0.14;100.00;101289.50;5534833;32;818257;-84
2022/01/27 01:35:46;;;;;;;;;;;;;;;-0.18;100.00;101287.91;5560138;32;35100;-84
2022/01/27 01:38:57;;;;;;;;;;;;;;;-0.12;100.00;101286.88;5563554;32;34506;-83
2022/01/27 01:42:00;;;;;;;;;;;;;;;-0.13;100.00;101286.00;5560277;32;35393;-83
2022/01/27 01:45:10;;;;;;;;;;;;;;;-0.11;100.00;101279.00;5560376;32;35270;-83
2022/01/27 01:48:14;;;;;;;;;;;;;;;0.01;100.00;101282.13;5559803;32;34458;-83
2022/01/27 01:51:26;;;;;;;;;;;;;;;-0.08;100.00;101288.47;5561983;32;35127;-84
2022/01/27 01:54:28;;;;;;;;;;;;;;;-0.10;100.00;101291.13;5560279;32;34567;-83
2022/01/27 01:57:31;;;;;;;;;;;;;;;-0.06;100.00;101287.53;5560782;32;34492;-83
2022/01/27 02:00:34;;;;;;;;;;;;;;;0.09;100.00;101290.53;5560913;32;34706;-83
2022/01/27 02:03:38;;;;;;;;;;;;;;;0.09;100.00;101280.13;5566835;31;35882;-83
2022/01/27 02:06:48;;;;;;;;;;;;;;;0.04;100.00;101279.44;5561434;32;35713;-83
2022/01/27 02:20:03;;;;;;;;;;;;;;;-0.01;100.00;101269.16;5559121;32;34609;-83
2022/01/27 02:23:07;;;;;;;;;;;;;;;-0.23;100.00;101253.38;5560191;32;35979;-84
2022/01/27 02:26:10;;;;;;;;;;;;;;;-0.38;100.00;101252.94;5560400;32;34245;-84
2022/01/27 02:29:16;;;;;;;;;;;;;;;-0.44;100.00;101249.69;5559401;32;33969;-83
2022/01/27 02:32:19;;;;;;;;;;;;;;;-0.38;100.00;101245.16;5560164;32;34791;-83
2022/01/27 02:35:26;;;;;;;;;;;;;;;-0.30;100.00;101251.88;5560321;32;34352;-83
2022/01/27 02:38:32;;;;;;;;;;;;;;;-0.27;100.00;101241.34;5560949;32;35402;-84
2022/01/27 02:41:57;;;;;;;;;;;;;;;-0.20;100.00;101224.69;5559458;32;35551;-84
2022/01/27 02:45:04;;;;;;;;;;;;;;;-0.09;100.00;101225.19;5499090;32;34883;-83
2022/01/27 02:48:07;;;;;;;;;;;;;;;-0.12;100.00;101227.88;5499639;32;34772;-83
2022/01/27 02:51:11;;;;;;;;;;;;;;;-0.13;100.00;101222.72;5558705;32;34418;-84
2022/01/27 02:54:13;;;;;;;;;;;;;;;0.02;100.00;101237.81;5561204;32;35394;-83
2022/01/27 02:57:19;;;;;;;;;;;;;;;0.08;100.00;101232.44;5563449;32;34127;-84
2022/01/27 03:00:25;;;;;;;;;;;;;;;-0.02;100.00;101234.47;5561342;32;34713;-84
2022/01/27 03:03:27;;;;;;;;;;;;;;;0.15;100.00;101220.91;5561542;32;35165;-84
2022/01/27 03:06:30;;;;;;;;;;;;;;;0.15;100.00;101233.09;5562239;32;34885;-83
2022/01/27 03:09:34;;;;;;;;;;;;;;;0.06;100.00;101238.56;5564293;32;34713;-84
2022/01/27 03:12:38;;;;;;;;;;;;;;;0.07;100.00;101235.06;5562876;32;35549;-84
2022/01/27 03:15:41;;;;;;;;;;;;;;;0.17;100.00;101241.66;5562109;32;34648;-84
2022/01/27 03:18:43;;;;;;;;;;;;;;;0.07;100.00;101243.75;5562823;32;35496;-84
2022/01/27 03:21:47;;;;;;;;;;;;;;;0.07;100.00;101240.28;5562825;32;34106;-86
2022/01/27 03:24:51;;;;;;;;;;;;;;;0.21;100.00;101248.47;5563331;32;34906;-84
2022/01/27 03:27:54;;;;;;;;;;;;;;;0.14;100.00;101247.00;5562074;32;34918;-84
2022/01/27 03:30:57;;;;;;;;;;;;;;;0.17;100.00;101233.84;5562542;32;35423;-84
2022/01/27 03:34:01;;;;;;;;;;;;;;;0.13;100.00;101237.50;5561855;32;34283;-84
2022/01/27 03:37:03;;;;;;;;;;;;;;;0.12;100.00;101233.19;5562891;32;35777;-84
2022/01/27 03:40:06;;;;;;;;;;;;;;;0.16;100.00;101234.78;5562687;32;35311;-84
2022/01/27 03:43:12;;;;;;;;;;;;;;;0.11;100.00;101236.69;5563012;32;34243;-84
2022/01/27 03:46:15;;;;;;;;;;;;;;;0.06;100.00;101226.44;5563123;32;34744;-84
2022/01/27 03:49:18;;;;;;;;;;;;;;;0.07;100.00;101224.66;5563000;32;35595;-84
2022/01/27 03:52:20;;;;;;;;;;;;;;;0.05;100.00;101216.09;5562254;32;34611;-83
2022/01/27 03:55:23;;;;;;;;;;;;;;;0.11;100.00;101221.91;5562688;32;34498;-84
2022/01/27 03:58:25;;;;;;;;;;;;;;;0.07;100.00;101220.31;5562746;32;35055;-84
2022/01/27 04:01:28;;;;;;;;;;;;;;;0.14;100.00;101207.97;5562680;32;34549;-84
2022/01/27 04:04:32;;;;;;;;;;;;;;;0.12;99.86;101209.75;5561076;32;34290;-83
2022/01/27 04:07:35;;;;;;;;;;;;;;;0.09;100.00;101217.66;5561921;32;33038;-84
2022/01/27 04:10:39;;;;;;;;;;;;;;;0.19;99.62;101219.06;5561490;32;34958;-84
2022/01/27 04:13:41;;;;;;;;;;;;;;;0.15;99.33;101239.12;5561732;32;34510;-84
2022/01/27 04:16:44;;;;;;;;;;;;;;;0.05;99.81;101223.87;5561189;32;34410;-84
2022/01/27 04:19:49;;;;;;;;;;;;;;;0.12;98.75;101227.97;5560958;32;34602;-84
2022/01/27 04:22:51;;;;;;;;;;;;;;;0.23;98.11;101214.59;5561929;32;36379;-84
2022/01/27 04:25:54;;;;;;;;;;;;;;;0.14;98.77;101223.56;5561965;32;34687;-84
2022/01/27 04:28:57;;;;;;;;;;;;;;;0.19;98.45;101228.62;5560685;32;35409;-84
2022/01/27 04:32:01;;;;;;;;;;;;;;;0.38;97.44;101219.28;5562102;32;35563;-84
2022/01/27 04:35:06;;;;;;;;;;;;;;;0.34;97.54;101229.84;5563137;32;34500;-84
2022/01/27 04:44:52;;;;;;;;;;;;;;;-0.01;99.58;101225.78;5554137;32;34589;-84
2022/01/27 04:48:05;;;;;;;;;;;;;;;0.07;98.84;101219.47;5562175;32;34237;-84
2022/01/27 04:51:11;;;;;;;;;;;;;;;0.04;99.21;101214.38;5562306;32;35106;-83
2022/01/27 04:57:19;;;;;;;;;;;;;;;0.15;98.00;101226.13;5561367;32;34479;-84
2022/01/27 05:00:22;;;;;;;;;;;;;;;0.12;97.73;101222.78;5562480;32;34590;-84
2022/01/27 05:03:36;;;;;;;;;;;;;;;0.09;97.43;101215.94;5561163;32;34656;-84
2022/01/27 05:06:41;;;;;;;;;;;;;;;0.11;97.07;101215.88;5561761;32;34625;-84
2022/01/27 05:09:52;;;;;;;;;;;;;;;0.12;96.95;101213.19;5561208;32;34480;-84
2022/01/27 05:13:07;;;;;;;;;;;;;;;0.14;96.47;101210.56;5561031;32;34989;-84
2022/01/27 05:16:09;;;;;;;;;;;;;;;0.27;95.62;101206.66;5561230;32;35009;-84
2022/01/27 05:19:13;;;;;;;;;;;;;;;0.27;95.88;101210.97;5560649;32;34134;-84
2022/01/27 05:22:15;;;;;;;;;;;;;;;0.40;95.36;101208.78;5560974;32;34606;-84
2022/01/27 05:25:18;;;;;;;;;;;;;;;0.30;95.19;101211.72;5560501;32;34538;-84
2022/01/27 05:28:20;;;;;;;;;;;;;;;0.38;95.17;101221.03;5562338;32;34657;-84
2022/01/27 05:31:23;;;;;;;;;;;;;;;0.37;95.14;101219.34;5561647;32;34563;-84
2022/01/27 05:34:26;;;;;;;;;;;;;;;0.30;96.07;101216.09;5560003;32;34520;-84
2022/01/27 05:37:28;;;;;;;;;;;;;;;0.37;95.77;101217.56;5560815;32;34077;-83
2022/01/27 05:40:31;;;;;;;;;;;;;;;0.26;96.17;101204.94;5561410;32;34216;-84
2022/01/27 05:43:34;;;;;;;;;;;;;;;0.29;96.03;101199.59;5562090;32;34909;-84
2022/01/27 05:46:37;;;;;;;;;;;;;;;0.22;96.60;101195.53;5561455;32;34509;-84
2022/01/27 05:49:39;;;;;;;;;;;;;;;0.18;96.97;101183.50;5561504;32;35024;-84
2022/01/27 05:52:42;;;;;;;;;;;;;;;0.32;95.74;101198.69;5559480;32;35382;-84
2022/01/27 05:55:44;;;;;;;;;;;;;;;0.34;96.24;101206.41;5562397;32;34584;-84
2022/01/27 05:58:47;;;;;;;;;;;;;;;0.29;95.86;101203.97;5560429;32;34280;-83
2022/01/27 06:01:52;;;;;;;;;;;;;;;0.29;95.87;101193.56;5561555;32;35499;-84
2022/01/27 06:04:55;;;;;;;;;;;;;;;0.33;95.62;101195.16;5562327;32;34976;-84
2022/01/27 06:07:57;;;;;;;;;;;;;;;0.31;95.56;101186.56;5560833;32;35278;-83
2022/01/27 06:11:08;;;;;;;;;;;;;;;0.34;95.46;101188.19;5562381;32;35756;-84
2022/01/27 06:14:16;;;;;;;;;;;;;;;0.28;95.81;101176.25;5564373;32;34710;-84
2022/01/27 06:17:19;;;;;;;;;;;;;;;0.40;95.42;101174.94;5561364;32;34551;-84
2022/01/27 06:20:22;;;;;;;;;;;;;;;0.35;95.39;101174.28;5561177;32;34576;-84
2022/01/27 06:23:25;;;;;;;;;;;;;;;0.35;95.40;101195.94;5560992;32;34327;-83
2022/01/27 06:26:29;;;;;;;;;;;;;;;0.34;96.06;101189.03;5561054;32;34720;-83
2022/01/27 06:29:34;;;;;;;;;;;;;;;0.30;96.71;101190.06;5561670;32;35578;-83
2022/01/27 06:32:37;;;;;;;;;;;;;;;0.44;95.53;101200.00;5565002;32;35428;-83
2022/01/27 06:35:40;;;;;;;;;;;;;;;0.35;95.94;101202.91;5552078;32;34522;-83
2022/01/27 06:38:43;;;;;;;;;;;;;;;0.33;96.34;101204.72;5544517;32;35026;-83
2022/01/27 06:41:47;;;;;;;;;;;;;;;0.34;95.95;101207.25;5544525;32;35381;-83
2022/01/27 06:44:51;;;;;;;;;;;;;;;0.38;96.27;101210.63;5544260;32;35142;-83
2022/01/27 06:47:53;;;;;;;;;;;;;;;0.38;96.13;101223.66;5543181;32;34365;-83
2022/01/27 06:50:56;;;;;;;;;;;;;;;0.42;96.33;101220.88;5543146;32;35409;-84
2022/01/27 06:54:00;;;;;;;;;;;;;;;0.44;95.83;101228.62;5542163;32;34392;-83
2022/01/27 06:57:03;;;;;;;;;;;;;;;0.50;96.10;101244.06;5541247;32;35422;-83
2022/01/27 07:00:07;;;;;;;;;;;;;;;0.51;96.02;101239.69;5542991;32;33905;-83
2022/01/27 07:03:13;;;;;;;;;;;;;;;0.54;96.09;101230.00;5542932;32;35524;-84
2022/01/27 07:06:21;;;;;;;;;;;;;;;0.61;95.68;101231.50;5542985;32;35116;-84
2022/01/27 07:09:28;;;;;;;;;;;;;;;0.69;95.08;101225.16;5541954;32;34760;-83
2022/01/27 07:12:32;;;;;;;;;;;;;;;0.58;95.69;101230.75;5544550;32;35683;-84
2022/01/27 07:15:35;;;;;;;;;;;;;;;0.64;95.53;101219.25;5545817;32;35493;-84
2022/01/27 07:18:38;;;;;;;;;;;;;;;0.69;95.39;101223.41;5543086;32;34460;-83
2022/01/27 07:21:40;;;;;;;;;;;;;;;0.68;95.00;101232.12;5543952;32;34187;-84
2022/01/27 07:24:43;;;;;;;;;;;;;;;0.75;95.21;101227.53;5542242;32;35643;-83
2022/01/27 07:27:45;;;;;;;;;;;;;;;0.75;94.82;101217.13;5541730;32;34518;-83
2022/01/27 07:30:48;;;;;;;;;;;;;;;0.64;95.19;101211.44;5543337;32;34578;-84
2022/01/27 07:33:52;;;;;;;;;;;;;;;0.60;95.52;101198.56;5543531;32;34355;-84
2022/01/27 07:36:58;;;;;;;;;;;;;;;0.64;95.57;101195.81;5543161;32;34995;-83
2022/01/27 07:40:01;;;;;;;;;;;;;;;0.75;95.44;101197.16;5542358;32;34228;-83
2022/01/27 07:43:04;;;;;;;;;;;;;;;0.76;94.99;101187.56;5558460;32;35176;-84
2022/01/27 07:46:11;;;;;;;;;;;;;;;0.72;95.46;101194.66;5564349;32;35165;-83
2022/01/27 07:49:14;;;;;;;;;;;;;;;0.83;95.56;101194.25;5564196;32;35460;-83
2022/01/27 07:52:18;;;;;;;;;;;;;;;0.83;94.95;101194.25;5562805;32;34632;-84
2022/01/27 07:55:21;;;;;;;;;;;;;;;0.78;95.31;101196.19;5563579;32;36649;-84
2022/01/27 07:58:28;;;;;;;;;;;;;;;0.78;95.23;101198.78;5563253;32;36213;-84
2022/01/27 08:01:33;;;;;;;;;;;;;;;1.11;93.52;101198.44;5563830;32;34564;-84
2022/01/27 08:04:40;;;;;;;;;;;;;;;1.05;93.77;101198.69;5563941;32;34994;-84
2022/01/27 08:07:42;;;;;;;;;;;;;;;0.85;94.00;101195.03;5563746;32;35575;-84
2022/01/27 08:10:45;;;;;;;;;;;;;;;0.88;94.00;101184.50;5564761;32;34492;-84
2022/01/27 08:13:48;;;;;;;;;;;;;;;1.05;94.06;101188.25;5563649;32;34953;-83
2022/01/27 08:16:51;;;;;;;;;;;;;;;1.25;92.22;101195.28;5563619;32;34578;-83
2022/01/27 08:19:53;;;;;;;;;;;;;;;1.20;92.24;101192.84;5563369;32;35294;-83
2022/01/27 08:22:57;;;;;;;;;;;;;;;0.98;93.20;101197.19;5563707;32;34065;-84
2022/01/27 08:26:09;;;;;;;;;;;;;;;0.94;93.83;101182.59;5563681;32;35276;-84
2022/01/27 08:29:18;;;;;;;;;;;;;;;1.15;93.41;101181.78;5561543;32;35537;-83
2022/01/27 08:32:30;;;;;;;;;;;;;;;1.27;92.18;101187.41;5562003;32;34250;-83
2022/01/27 08:35:33;;;;;;;;;;;;;;;1.18;92.05;101189.47;5563993;32;34837;-84
2022/01/27 08:38:41;;;;;;;;;;;;;;;1.18;92.43;101196.44;5563391;32;34710;-83
2022/01/27 08:41:43;;;;;;;;;;;;;;;1.21;92.58;101197.16;5556933;32;34552;-84
2022/01/27 08:44:46;;;;;;;;;;;;;;;1.30;91.67;101193.37;5545288;32;35644;-84
2022/01/27 08:47:48;;;;;;;;;;;;;;;1.34;90.84;101194.09;5546420;32;35228;-84
2022/01/27 08:50:58;;;;;;;;;;;;;;;1.51;89.88;101196.91;5562604;32;35594;-84
2022/01/27 08:54:21;;;;;;;;;;;;;;;1.87;88.59;101181.56;5555050;32;35416;-84
2022/01/27 08:57:26;;;;;;;;;;;;;;;2.03;87.06;101166.97;5557285;32;34713;-84
2022/01/27 09:00:29;;;;;;;;;;;;;;;2.29;85.98;101158.00;5558445;32;36869;-84
2022/01/27 09:03:34;;;;;;;;;;;;;;;2.54;84.01;101162.16;5556179;32;34649;-84
2022/01/27 09:06:37;;;;;;;;;;;;;;;2.54;84.24;101161.28;5544377;32;34055;-84
2022/01/27 09:09:40;;;;;;;;;;;;;;;2.71;83.81;101168.38;5544731;32;36088;-85
2022/01/27 09:12:43;;;;;;;;;;;;;;;2.68;83.03;101174.59;5544304;32;35493;-85
2022/01/27 09:15:48;;;;;;;;;;;;;;;2.41;84.90;101177.53;5543181;32;34413;-84
2022/01/27 09:18:54;;;;;;;;;;;;;;;2.76;85.49;101175.09;5544622;32;35486;-84
2022/01/27 09:21:56;;;;;;;;;;;;;;;2.77;83.09;101171.56;5545775;32;34614;-84
2022/01/27 09:25:06;;;;;;;;;;;;;;;2.57;82.78;101169.00;5544147;32;34442;-83
2022/01/27 09:28:09;;;;;;;;;;;;;;;2.58;83.42;101173.31;5555896;32;34884;-84
2022/01/27 09:31:12;;;;;;;;;;;;;;;2.84;82.38;101182.59;5563503;32;34692;-83
2022/01/27 09:34:15;;;;;;;;;;;;;;;2.65;83.10;101179.94;5564513;32;35097;-84
2022/01/27 09:37:20;;;;;;;;;;;;;;;2.24;85.18;101177.41;5562766;32;34825;-84
2022/01/27 09:40:23;;;;;;;;;;;;;;;2.25;84.32;101176.47;5562757;32;34622;-84
2022/01/27 09:43:26;;;;;;;;;;;;;;;2.37;84.20;101175.97;5562571;32;34381;-84
2022/01/27 09:46:30;;;;;;;;;;;;;;;2.36;83.57;101171.66;5564001;32;35770;-84
2022/01/27 09:49:41;;;;;;;;;;;;;;;2.22;84.33;101172.25;5564156;32;34096;-84
2022/01/27 09:52:44;;;;;;;;;;;;;;;2.18;84.32;101182.91;5567595;31;34515;-84
2022/01/27 09:55:49;;;;;;;;;;;;;;;2.27;83.97;101179.87;5562670;32;35511;-84
2022/01/27 09:58:52;;;;;;;;;;;;;;;2.51;83.50;101185.78;5563090;32;34721;-84
2022/01/27 10:01:57;;;;;;;;;;;;;;;2.49;83.27;101181.56;5561694;32;34706;-85
2022/01/27 10:05:02;;;;;;;;;;;;;;;2.55;82.78;101176.06;5563220;32;35569;-84
2022/01/27 10:08:08;;;;;;;;;;;;;;;2.46;82.98;101174.72;5549828;32;35492;-84
2022/01/27 10:11:15;;;;;;;;;;;;;;;2.85;82.01;101176.44;5563749;32;35262;-84
2022/01/27 10:14:20;;;;;;;;;;;;;;;3.26;79.48;101170.22;5562316;32;35218;-84
2022/01/27 10:17:23;;;;;;;;;;;;;;;3.15;78.75;101178.59;5563578;32;34551;-84
2022/01/27 10:20:25;;;;;;;;;;;;;;;3.33;79.95;101160.31;5563032;32;35555;-84
2022/01/27 10:23:33;;;;;;;;;;;;;;;3.18;78.66;101149.66;5562447;32;34966;-84
2022/01/27 10:26:42;;;;;;;;;;;;;;;2.60;81.47;101142.75;5563379;32;34381;-84
2022/01/27 10:30:02;;;;;;;;;;;;;;;2.50;81.89;101129.25;5561720;32;35108;-84
2022/01/27 10:33:11;;;;;;;;;;;;;;;2.51;81.31;101115.25;5556322;32;35442;-84
2022/01/27 10:36:18;;;;;;;;;;;;;;;2.64;81.63;101115.56;5543332;32;34173;-84
2022/01/27 10:39:20;;;;;;;;;;;;;;;2.59;81.13;101113.16;5544090;32;34650;-84
2022/01/27 10:42:24;;;;;;;;;;;;;;;2.58;80.71;101115.84;5544127;32;34651;-84
2022/01/27 10:45:26;;;;;;;;;;;;;;;2.31;81.75;101105.69;5561848;32;34306;-84
2022/01/27 10:48:34;;;;;;;;;;;;;;;2.49;81.58;101098.81;5563639;32;35191;-84
2022/01/27 10:51:45;;;;;;;;;;;;;;;2.55;81.17;101088.09;5564900;32;35616;-85
2022/01/27 10:54:55;;;;;;;;;;;;;;;2.50;81.08;101081.37;5564511;32;36315;-85
2022/01/27 10:57:57;;;;;;;;;;;;;;;2.55;81.09;101075.03;5550852;32;35112;-85
2022/01/27 11:01:04;;;;;;;;;;;;;;;2.57;80.93;101077.56;5562732;32;34387;-85
2022/01/27 11:04:07;;;;;;;;;;;;;;;2.46;80.94;101071.06;5563915;32;35371;-85
2022/01/27 11:07:14;;;;;;;;;;;;;;;2.44;81.83;101072.91;5562657;32;34586;-85
2022/01/27 11:10:20;;;;;;;;;;;;;;;2.40;81.79;101066.16;5562839;32;35219;-85
2022/01/27 11:13:24;;;;;;;;;;;;;;;2.50;81.45;101069.16;5563980;32;35021;-84
2022/01/27 11:16:36;;;;;;;;;;;;;;;2.41;81.50;101075.66;5564449;32;35648;-84
2022/01/27 11:19:59;;;;;;;;;;;;;;;2.58;81.25;101059.22;5565706;32;35803;-85
2022/01/27 11:26:37;;;;;;;;;;;;;;;3.01;79.70;101050.28;5524618;32;34715;-85
2022/01/27 11:29:45;;;;;;;;;;;;;;;3.04;79.71;101047.53;5566273;31;34693;-84
2022/01/27 11:32:55;;;;;;;;;;;;;;;3.09;79.69;101041.16;5566031;32;35116;-85
2022/01/27 11:36:24;;;;;;;;;;;;;;;3.29;78.45;101028.00;5563647;32;35122;-85
2022/01/27 11:39:46;;;;;;;;;;;;;;;3.44;78.17;101028.97;5565612;32;35368;-85
2022/01/27 11:42:54;;;;;;;;;;;;;;;3.55;76.93;101024.91;5564358;32;35378;-85
2022/01/27 11:46:10;;;;;;;;;;;;;;;3.53;76.76;101016.28;5564961;32;34436;-85
2022/01/27 11:49:33;;;;;;;;;;;;;;;3.39;76.36;101014.38;5565248;32;35000;-86
2022/01/27 11:52:52;;;;;;;;;;;;;;;3.48;76.68;101007.00;5565543;32;34890;-85
2022/01/27 11:55:58;;;;;;;;;;;;;;;3.38;76.19;101007.47;5565006;31;35599;-85
2022/01/27 11:59:05;;;;;;;;;;;;;;;3.36;76.95;101014.53;5565339;32;34290;-86
2022/01/27 12:02:08;;;;;;;;;;;;;;;3.46;76.42;101025.38;5564547;32;34482;-85
2022/01/27 12:05:11;;;;;;;;;;;;;;;3.33;76.59;101011.22;5561594;32;35605;-86
2022/01/27 12:08:20;;;;;;;;;;;;;;;3.34;76.82;101005.06;5566288;32;34816;-85
2022/01/27 12:11:48;;;;;;;;;;;;;;;3.43;76.32;101003.78;5565186;32;35523;-86
2022/01/27 12:14:56;;;;;;;;;;;;;;;3.58;76.26;101008.22;5565975;32;34165;-85
2022/01/27 12:18:19;;;;;;;;;;;;;;;3.70;76.06;101002.34;5565598;32;35096;-86
2022/01/27 12:21:35;;;;;;;;;;;;;;;3.74;75.45;100995.16;5566362;32;35601;-85
2022/01/27 12:24:49;;;;;;;;;;;;;;;3.76;75.87;100995.12;5565306;32;35722;-86
2022/01/27 12:27:54;;;;;;;;;;;;;;;3.88;75.79;100989.25;5566584;31;34649;-86
2022/01/27 12:30:58;;;;;;;;;;;;;;;3.88;75.15;100978.78;5566158;32;35560;-86
2022/01/27 12:34:01;;;;;;;;;;;;;;;4.06;75.15;100981.31;5567070;32;35334;-86
2022/01/27 12:37:08;;;;;;;;;;;;;;;4.10;74.52;100969.75;5551246;32;34439;-86
2022/01/27 12:40:20;;;;;;;;;;;;;;;3.99;74.86;100958.09;5545501;32;34612;-85
2022/01/27 12:43:23;;;;;;;;;;;;;;;4.02;75.37;100955.28;5545212;32;34737;-85
2022/01/27 12:46:28;;;;;;;;;;;;;;;4.18;74.58;100938.75;5559737;32;34526;-86
2022/01/27 12:49:36;;;;;;;;;;;;;;;4.18;74.63;100938.75;5560958;32;34567;-85
2022/01/27 12:52:43;;;;;;;;;;;;;;;4.17;73.87;100942.31;5559390;32;34732;-86
2022/01/27 12:55:46;;;;;;;;;;;;;;;4.15;74.22;100929.28;5565975;32;35450;-86
2022/01/27 12:58:54;;;;;;;;;;;;;;;4.08;74.19;100921.84;5565207;32;35507;-85
2022/01/27 13:02:01;;;;;;;;;;;;;;;4.07;74.32;100922.78;5564796;31;36726;-86
2022/01/27 13:05:06;;;;;;;;;;;;;;;4.11;74.44;100911.22;5564052;32;34711;-86
2022/01/27 13:08:12;;;;;;;;;;;;;;;4.20;72.81;100892.38;5565480;32;34436;-86
2022/01/27 13:11:15;;;;;;;;;;;;;;;4.21;72.90;100896.69;5564646;32;34895;-86
2022/01/27 13:14:18;;;;;;;;;;;;;;;4.35;72.43;100882.81;5566433;32;34178;-86
2022/01/27 13:17:30;;;;;;;;;;;;;;;4.24;72.89;100879.94;5564873;32;35584;-85
2022/01/27 13:20:42;;;;;;;;;;;;;;;4.13;73.48;100885.78;5564842;32;34927;-85
2022/01/27 13:23:47;;;;;;;;;;;;;;;4.08;74.08;100874.72;5564543;32;34646;-85
2022/01/27 13:27:03;;;;;;;;;;;;;;;4.19;73.67;100885.44;5563039;32;35544;-86
2022/01/27 13:30:06;;;;;;;;;;;;;;;4.17;72.88;100888.13;5565991;32;35514;-86
2022/01/27 13:33:12;;;;;;;;;;;;;;;4.10;73.39;100878.09;5564441;32;35095;-85
2022/01/27 13:36:23;;;;;;;;;;;;;;;4.19;72.51;100867.09;5564049;32;34945;-85
2022/01/27 13:42:30;;;;;;;;;;;;;;;4.27;73.08;100864.91;5564479;32;35177;-85
2022/01/27 13:45:36;;;;;;;;;;;;;;;4.26;73.17;100863.19;5565901;32;35232;-85
2022/01/27 13:48:47;;;;;;;;;;;;;;;4.18;73.17;100849.72;5566911;32;35564;-85
2022/01/27 13:51:51;;;;;;;;;;;;;;;4.12;73.95;100850.03;5567017;32;35531;-85
2022/01/27 13:54:53;;;;;;;;;;;;;;;3.92;74.12;100838.91;5564323;32;35609;-86
2022/01/27 13:58:02;;;;;;;;;;;;;;;3.89;74.11;100828.59;5565672;32;34814;-85
2022/01/27 14:01:06;;;;;;;;;;;;;;;3.89;74.84;100838.25;5565587;32;35435;-86
2022/01/27 14:04:11;;;;;;;;;;;;;;;3.91;75.30;100837.22;5565692;32;35570;-87
2022/01/27 14:07:30;;;;;;;;;;;;;;;3.69;76.89;100833.16;5565862;32;35369;-85
2022/01/27 14:10:41;;;;;;;;;;;;;;;3.68;77.55;100826.25;5564194;32;34399;-85
2022/01/27 14:13:58;;;;;;;;;;;;;;;3.55;78.04;100812.12;5564250;32;34190;-85
2022/01/27 14:17:01;;;;;;;;;;;;;;;3.51;78.21;100813.25;5544808;32;34695;-85
2022/01/27 14:20:12;;;;;;;;;;;;;;;3.51;78.71;100816.69;5544972;32;35517;-85
2022/01/27 14:23:17;;;;;;;;;;;;;;;3.54;78.35;100813.09;5544800;32;34554;-85
2022/01/27 14:26:36;;;;;;;;;;;;;;;3.54;79.07;100807.84;5544210;32;35277;-85
2022/01/27 14:29:39;;;;;;;;;;;;;;;3.55;79.07;100809.50;5549085;32;35489;-85
2022/01/27 14:32:51;;;;;;;;;;;;;;;3.50;79.68;100804.53;5563554;32;35037;-85
2022/01/27 14:35:54;;;;;;;;;;;;;;;3.47;80.79;100798.63;5564067;32;35563;-86
2022/01/27 14:38:58;;;;;;;;;;;;;;;3.48;80.97;100792.47;5564305;32;35512;-85
2022/01/27 14:42:00;;;;;;;;;;;;;;;3.51;81.11;100792.31;5563087;32;34521;-85
2022/01/27 14:45:06;;;;;;;;;;;;;;;3.48;82.26;100776.78;5562547;32;34590;-85
2022/01/27 14:48:09;;;;;;;;;;;;;;;3.49;82.67;100778.47;5563622;32;35385;-85
2022/01/27 14:51:18;;;;;;;;;;;;;;;3.35;83.21;100777.44;5565018;32;35599;-86
2022/01/27 14:54:21;;;;;;;;;;;;;;;3.43;83.16;100778.81;5565994;32;35568;-86
2022/01/27 14:57:24;;;;;;;;;;;;;;;3.30;83.56;100789.06;5564334;32;35561;-85
2022/01/27 15:00:28;;;;;;;;;;;;;;;3.20;84.02;100780.91;5553316;32;35958;-85
2022/01/27 15:03:33;;;;;;;;;;;;;;;3.20;84.63;100779.09;5556088;32;34386;-86
2022/01/27 15:06:43;;;;;;;;;;;;;;;3.07;84.63;100776.31;5562479;32;35466;-86
2022/01/27 15:09:48;;;;;;;;;;;;;;;2.96;85.77;100760.34;5566914;32;34552;-86
2022/01/27 15:12:54;;;;;;;;;;;;;;;2.97;85.96;100761.19;5565382;32;35536;-86
2022/01/27 15:19:34;;;;;;;;;;;;;;;2.92;86.98;100745.75;5566675;32;34326;-86
2022/01/27 15:22:40;;;;;;;;;;;;;;;2.95;87.17;100742.97;5565926;32;35543;-85
2022/01/27 15:25:44;;;;;;;;;;;;;;;2.78;87.52;100747.31;5555778;32;34413;-85
2022/01/27 15:28:47;;;;;;;;;;;;;;;2.68;88.98;100740.88;5545408;32;34295;-86
2022/01/27 15:31:50;;;;;;;;;;;;;;;2.71;89.11;100745.94;5562667;32;34624;-86
2022/01/27 15:34:58;;;;;;;;;;;;;;;2.62;90.25;100749.03;5564422;32;35590;-86
2022/01/27 15:38:01;;;;;;;;;;;;;;;2.66;89.77;100737.50;5565550;32;34457;-85
2022/01/27 15:41:04;;;;;;;;;;;;;;;2.55;90.40;100747.66;5565120;32;35512;-85
2022/01/27 15:44:07;;;;;;;;;;;;;;;2.45;90.74;100737.69;5558394;32;35232;-85
2022/01/27 15:47:13;;;;;;;;;;;;;;;2.38;90.99;100732.84;5565157;32;36852;-86
2022/01/27 15:50:18;;;;;;;;;;;;;;;2.34;91.68;100729.53;5555344;32;35522;-85
2022/01/27 15:53:22;;;;;;;;;;;;;;;2.30;91.09;100735.84;5558845;32;34572;-85
2022/01/27 15:56:24;;;;;;;;;;;;;;;2.18;91.73;100736.47;5564866;32;35069;-85
2022/01/27 15:59:27;;;;;;;;;;;;;;;2.12;92.49;100733.22;5555589;32;34635;-85
2022/01/27 16:02:30;;;;;;;;;;;;;;;2.23;92.06;100713.56;5549859;32;36345;-85
2022/01/27 16:05:33;;;;;;;;;;;;;;;2.14;91.36;100720.94;5544505;32;34078;-85
2022/01/27 16:08:36;;;;;;;;;;;;;;;2.26;90.37;100710.81;5542669;32;35528;-85
2022/01/27 16:11:41;;;;;;;;;;;;;;;2.21;90.20;100715.41;5542084;32;34215;-85
2022/01/27 16:14:48;;;;;;;;;;;;;;;2.11;91.23;100713.28;5542336;32;35653;-85
2022/01/27 16:17:54;;;;;;;;;;;;;;;2.09;90.93;100717.72;5545637;32;35577;-85
2022/01/27 16:21:00;;;;;;;;;;;;;;;2.02;91.27;100713.72;5558267;32;35209;-86
2022/01/27 16:24:03;;;;;;;;;;;;;;;1.96;91.87;100711.44;5561250;32;34011;-86
2022/01/27 16:27:10;;;;;;;;;;;;;;;1.96;91.11;100711.44;5561021;32;34244;-85
2022/01/27 16:30:13;;;;;;;;;;;;;;;1.93;91.23;100712.41;5562801;32;34266;-86
2022/01/27 16:33:16;;;;;;;;;;;;;;;1.87;91.41;100701.44;5562192;32;35730;-85
2022/01/27 16:36:19;;;;;;;;;;;;;;;1.81;91.77;100713.00;5562782;32;34901;-85
2022/01/27 16:39:21;;;;;;;;;;;;;;;1.80;92.73;100698.31;5563002;32;34225;-86
2022/01/27 16:42:24;;;;;;;;;;;;;;;1.88;91.68;100693.53;5550851;32;35429;-85
2022/01/27 16:45:27;;;;;;;;;;;;;;;1.94;90.72;100700.22;5544566;32;35508;-85
2022/01/27 16:48:32;;;;;;;;;;;;;;;1.82;91.13;100697.31;5541731;32;34324;-85
2022/01/27 16:51:35;;;;;;;;;;;;;;;1.68;91.98;100692.75;5542010;32;34223;-85
2022/01/27 16:54:38;;;;;;;;;;;;;;;1.64;92.25;100692.97;5545226;32;34335;-86
2022/01/27 16:57:43;;;;;;;;;;;;;;;1.58;92.18;100695.88;5544162;32;35505;-85